createdAt,value
2019-02-05T00:01:34.943Z,55.94
2019-02-05T00:03:59.691Z,56.45
2019-02-05T00:06:24.178Z,56.30
2019-02-05T00:08:48.586Z,56.41
2019-02-05T00:11:13.077Z,55.86
2019-02-05T00:13:37.471Z,56.21
2019-02-05T00:16:02.014Z,55.96
2019-02-05T00:18:26.434Z,56.67
2019-02-05T00:20:50.835Z,56.95
2019-02-05T00:23:15.395Z,57.19
2019-02-05T00:25:39.800Z,57.23
2019-02-05T00:28:04.638Z,57.41
2019-02-05T00:30:29.111Z,57.68
2019-02-05T00:32:53.534Z,57.74
2019-02-05T00:35:17.994Z,58.27
2019-02-05T00:37:42.591Z,58.16
2019-02-05T00:40:12.792Z,58.37
2019-02-05T00:42:37.281Z,58.41
2019-02-05T00:45:01.696Z,58.33
2019-02-05T00:47:26.556Z,58.55
2019-02-05T00:49:51.362Z,58.41
2019-02-05T00:52:15.766Z,58.70
2019-02-05T00:54:40.321Z,58.82
2019-02-05T00:57:04.905Z,59.04
2019-02-05T00:59:29.328Z,59.13
2019-02-05T01:01:53.717Z,59.06
2019-02-05T01:04:18.279Z,59.83
2019-02-05T01:06:42.744Z,59.92
2019-02-05T01:09:08.985Z,59.82
2019-02-05T01:11:33.451Z,59.96
2019-02-05T01:13:59.521Z,60.47
2019-02-05T01:16:23.944Z,60.64
2019-02-05T01:18:48.334Z,60.80
2019-02-05T01:21:12.826Z,60.94
2019-02-05T01:23:37.213Z,61.60
2019-02-05T01:26:01.624Z,61.86
2019-02-05T01:28:26.019Z,61.59
2019-02-05T01:30:50.439Z,62.04
2019-02-05T01:33:14.833Z,62.52
2019-02-05T01:35:39.316Z,62.71
2019-02-05T01:38:04.133Z,63.41
2019-02-05T01:40:28.694Z,63.76
2019-02-05T01:42:53.223Z,63.69
2019-02-05T01:45:19.081Z,63.73
2019-02-05T01:47:43.766Z,64.50
2019-02-05T01:50:10.935Z,64.10
2019-02-05T01:52:35.330Z,64.38
2019-02-05T01:54:59.730Z,64.22
2019-02-05T01:57:24.148Z,64.30
2019-02-05T01:59:48.542Z,64.42
2019-02-05T02:02:13.277Z,65.23
2019-02-05T02:04:37.740Z,64.98
2019-02-05T02:07:03.209Z,66.56
2019-02-05T02:09:27.569Z,67.29
2019-02-05T02:11:51.990Z,68.23
2019-02-05T02:14:16.384Z,68.40
2019-02-05T02:16:40.806Z,68.97
2019-02-05T02:19:05.347Z,70.69
2019-02-05T02:21:29.818Z,71.68
2019-02-05T02:23:54.227Z,72.17
2019-02-05T02:26:19.063Z,72.27
2019-02-05T02:28:43.557Z,72.68
2019-02-05T02:31:08.029Z,72.41
2019-02-05T02:33:32.450Z,73.55
2019-02-05T02:35:56.983Z,73.58
2019-02-05T02:38:21.473Z,73.60
2019-02-05T02:40:45.861Z,73.35
2019-02-05T02:43:10.279Z,72.84
2019-02-05T02:45:34.678Z,73.46
2019-02-05T02:47:59.247Z,74.18
2019-02-05T02:50:24.071Z,74.49
2019-02-05T02:52:48.619Z,74.55
2019-02-05T02:55:13.177Z,74.56
2019-02-05T02:57:37.717Z,75.29
2019-02-05T03:00:02.150Z,75.72
2019-02-05T03:02:26.634Z,75.56
2019-02-05T03:04:51.153Z,75.84
2019-02-05T03:07:15.555Z,75.03
2019-02-05T03:09:39.982Z,75.16
2019-02-05T03:12:04.522Z,75.42
2019-02-05T03:14:28.934Z,75.50
2019-02-05T03:16:53.352Z,75.97
2019-02-05T03:19:18.196Z,76.39
2019-02-05T03:21:42.801Z,76.24
2019-02-05T03:24:07.274Z,75.81
2019-02-05T03:26:31.705Z,75.38
2019-02-05T03:28:56.110Z,75.48
2019-02-05T03:31:20.537Z,75.70
2019-02-05T03:33:44.955Z,75.68
2019-02-05T03:36:09.388Z,75.78
2019-02-05T03:38:33.796Z,75.88
2019-02-05T03:41:01.278Z,75.75
2019-02-05T03:43:25.869Z,76.12
2019-02-05T03:45:50.432Z,75.86
2019-02-05T03:48:16.084Z,75.71
2019-02-05T03:50:43.714Z,75.39
2019-02-05T03:53:11.164Z,75.81
2019-02-05T03:55:50.405Z,75.52
2019-02-05T03:58:17.850Z,75.07
2019-02-05T04:00:48.245Z,74.71
2019-02-05T04:03:35.122Z,75.62
2019-02-05T04:06:05.436Z,75.43
2019-02-05T04:08:35.737Z,75.56
2019-02-05T04:11:11.983Z,75.54
2019-02-05T04:13:55.779Z,75.29
2019-02-05T04:16:45.429Z,75.61
2019-02-05T04:19:33.917Z,75.21
2019-02-05T04:22:25.178Z,74.91
2019-02-05T04:25:01.318Z,74.53
2019-02-05T04:27:44.992Z,75.38
2019-02-05T04:30:09.646Z,75.44
2019-02-05T04:32:51.733Z,75.70
2019-02-05T04:35:33.313Z,74.99
2019-02-05T04:38:12.661Z,74.52
2019-02-05T04:41:08.449Z,75.19
2019-02-05T04:43:51.039Z,75.57
2019-02-05T04:46:40.307Z,75.35
2019-02-05T04:49:24.265Z,75.27
2019-02-05T04:52:09.560Z,74.70
2019-02-05T04:54:37.023Z,75.06
2019-02-05T04:57:10.112Z,74.91
2019-02-05T04:59:49.723Z,74.85
2019-02-05T05:02:24.139Z,75.14
2019-02-05T05:04:54.674Z,75.09
2019-02-05T05:07:27.819Z,75.06
2019-02-05T05:09:54.667Z,74.71
2019-02-05T05:12:19.492Z,74.79
2019-02-05T05:14:43.960Z,74.63
2019-02-05T05:17:08.493Z,74.38
2019-02-05T05:19:33.524Z,74.38
2019-02-05T05:21:58.193Z,74.48
2019-02-05T05:24:22.855Z,74.19
2019-02-05T05:26:47.514Z,74.97
2019-02-05T05:29:12.058Z,75.38
2019-02-05T05:31:36.636Z,75.57
2019-02-05T05:34:01.181Z,75.24
2019-02-05T05:36:25.697Z,74.79
2019-02-05T05:38:50.108Z,75.15
2019-02-05T05:41:14.793Z,74.82
2019-02-05T05:43:39.237Z,75.28
2019-02-05T05:46:03.716Z,74.61
2019-02-05T05:48:28.226Z,75.25
2019-02-05T05:50:52.700Z,74.80
2019-02-05T05:53:17.128Z,74.75
2019-02-05T05:55:41.749Z,75.63
2019-02-05T05:58:06.327Z,75.72
2019-02-05T06:00:30.793Z,75.92
2019-02-05T06:02:55.368Z,76.17
2019-02-05T06:05:20.116Z,75.09
2019-02-05T06:07:44.898Z,76.24
2019-02-05T06:10:12.967Z,76.22
2019-02-05T06:12:37.417Z,75.59
2019-02-05T06:15:01.834Z,75.05
2019-02-05T06:17:26.399Z,76.10
2019-02-05T06:19:50.897Z,75.28
2019-02-05T06:22:15.311Z,75.17
2019-02-05T06:24:39.806Z,76.09
2019-02-05T06:27:04.455Z,76.12
2019-02-05T06:29:28.877Z,76.54
2019-02-05T06:31:53.471Z,76.08
2019-02-05T06:34:18.266Z,75.98
2019-02-05T06:36:42.743Z,75.65
2019-02-05T06:39:08.319Z,75.90
2019-02-05T06:41:32.718Z,75.78
2019-02-05T06:43:57.142Z,75.75
2019-02-05T06:46:21.576Z,75.70
2019-02-05T06:48:46.061Z,75.29
2019-02-05T06:51:10.553Z,76.27
2019-02-05T06:53:34.977Z,76.01
2019-02-05T06:55:59.395Z,76.17
2019-02-05T06:58:23.819Z,76.10
2019-02-05T07:00:49.831Z,75.54
2019-02-05T07:03:14.582Z,75.65
2019-02-05T07:05:39.048Z,75.97
2019-02-05T07:08:03.558Z,75.71
2019-02-05T07:10:28.065Z,75.80
2019-02-05T07:12:52.658Z,76.01
2019-02-05T07:15:17.158Z,75.48
2019-02-05T07:17:49.388Z,75.71
2019-02-05T07:20:13.062Z,75.91
2019-02-05T07:22:37.563Z,75.45
2019-02-05T07:25:01.999Z,75.94
2019-02-05T07:27:26.726Z,75.91
2019-02-05T07:29:51.152Z,75.99
2019-02-05T07:32:15.738Z,76.75
2019-02-05T07:34:40.143Z,75.67
2019-02-05T07:37:04.907Z,76.80
2019-02-05T07:39:29.359Z,76.33
2019-02-05T07:41:53.797Z,77.00
2019-02-05T07:44:18.291Z,75.83
2019-02-05T07:46:42.820Z,76.02
2019-02-05T07:49:07.281Z,76.16
2019-02-05T07:51:31.712Z,75.62
2019-02-05T07:53:56.163Z,76.17
2019-02-05T07:56:20.586Z,76.40
2019-02-05T07:58:45.121Z,75.87
2019-02-05T08:01:09.904Z,75.69
2019-02-05T08:03:34.387Z,75.38
2019-02-05T08:05:58.827Z,75.48
2019-02-05T08:08:23.600Z,75.75
2019-02-05T08:10:48.220Z,75.13
2019-02-05T08:13:12.797Z,75.90
2019-02-05T08:15:37.249Z,76.26
2019-02-05T08:18:02.022Z,76.38
2019-02-05T08:20:26.550Z,76.14
2019-02-05T08:22:51.212Z,76.78
2019-02-05T08:25:15.956Z,76.02
2019-02-05T08:27:40.465Z,76.30
2019-02-05T08:30:07.974Z,77.00
2019-02-05T08:32:34.167Z,76.63
2019-02-05T08:34:58.709Z,76.10
2019-02-05T08:37:23.149Z,76.92
2019-02-05T08:39:47.582Z,76.60
2019-02-05T08:42:12.112Z,76.36
2019-02-05T08:44:36.537Z,76.53
2019-02-05T08:47:00.988Z,76.28
2019-02-05T08:49:25.419Z,75.63
2019-02-05T08:51:49.897Z,76.36
2019-02-05T08:54:14.321Z,76.31
2019-02-05T08:56:38.848Z,76.49
2019-02-05T08:59:03.363Z,77.24
2019-02-05T09:01:27.884Z,76.36
2019-02-05T09:03:52.710Z,76.72
2019-02-05T09:06:17.248Z,77.39
2019-02-05T09:08:41.679Z,76.83
2019-02-05T09:11:06.271Z,76.23
2019-02-05T09:13:30.774Z,75.82
2019-02-05T09:15:55.201Z,75.78
2019-02-05T09:18:19.737Z,75.59
2019-02-05T09:20:44.244Z,75.55
2019-02-05T09:23:08.773Z,76.30
2019-02-05T09:25:33.344Z,76.24
2019-02-05T09:27:57.972Z,76.58
2019-02-05T09:30:27.323Z,76.52
2019-02-05T09:32:54.473Z,75.51
2019-02-05T09:35:18.963Z,75.22
2019-02-05T09:37:43.585Z,75.94
2019-02-05T09:40:13.947Z,75.83
2019-02-05T09:42:38.475Z,75.90
2019-02-05T09:45:02.969Z,74.99
2019-02-05T09:47:27.425Z,75.35
2019-02-05T09:49:51.927Z,75.55
2019-02-05T09:52:16.395Z,76.34
2019-02-05T09:54:40.899Z,76.43
2019-02-05T09:57:05.923Z,76.16
2019-02-05T09:59:30.374Z,75.16
2019-02-05T10:01:54.877Z,75.28
2019-02-05T10:04:19.335Z,75.20
2019-02-05T10:06:43.761Z,75.75
2019-02-05T10:09:08.770Z,75.98
2019-02-05T10:11:33.204Z,74.45
2019-02-05T10:13:57.666Z,74.37
2019-02-05T10:16:22.094Z,74.67
2019-02-05T10:18:46.560Z,74.48
2019-02-05T10:21:11.234Z,74.20
2019-02-05T10:23:35.810Z,74.10
2019-02-05T10:26:00.740Z,74.02
2019-02-05T10:28:25.364Z,74.69
2019-02-05T10:30:49.882Z,74.73
2019-02-05T10:33:14.389Z,75.08
2019-02-05T10:35:38.993Z,75.70
2019-02-05T10:38:03.754Z,75.66
2019-02-05T10:40:28.424Z,75.27
2019-02-05T10:42:53.200Z,75.43
2019-02-05T10:45:19.672Z,74.98
2019-02-05T10:47:44.202Z,76.10
2019-02-05T10:50:11.498Z,75.45
2019-02-05T10:52:36.405Z,75.06
2019-02-05T10:55:00.878Z,74.97
2019-02-05T10:57:25.443Z,74.76
2019-02-05T10:59:49.878Z,74.37
2019-02-05T11:02:14.475Z,74.51
2019-02-05T11:04:39.045Z,74.35
2019-02-05T11:07:03.588Z,74.71
2019-02-05T11:09:28.091Z,74.81
2019-02-05T11:11:52.626Z,74.84
2019-02-05T11:14:17.126Z,74.75
2019-02-05T11:16:41.566Z,74.46
2019-02-05T11:19:06.351Z,74.31
2019-02-05T11:21:31.065Z,74.30
2019-02-05T11:23:55.692Z,74.44
2019-02-05T11:26:20.192Z,74.57
2019-02-05T11:28:44.656Z,74.72
2019-02-05T11:31:09.235Z,73.68
2019-02-05T11:33:33.700Z,73.68
2019-02-05T11:35:58.205Z,74.33
2019-02-05T11:38:22.687Z,74.34
2019-02-05T11:40:47.453Z,74.84
2019-02-05T11:43:11.981Z,74.40
2019-02-05T11:45:36.662Z,74.39
2019-02-05T11:48:02.525Z,74.75
2019-02-05T11:50:27.502Z,74.43
2019-02-05T11:52:52.272Z,75.13
2019-02-05T11:55:19.067Z,75.64
2019-02-05T11:57:43.571Z,75.22
2019-02-05T12:00:12.313Z,75.43
2019-02-05T12:02:36.828Z,75.41
2019-02-05T12:05:01.281Z,74.93
2019-02-05T12:07:25.784Z,75.21
2019-02-05T12:09:50.362Z,75.49
2019-02-05T12:12:14.827Z,75.26
2019-02-05T12:14:39.327Z,76.07
2019-02-05T12:17:03.781Z,75.55
2019-02-05T12:19:28.599Z,76.21
2019-02-05T12:21:53.205Z,75.90
2019-02-05T12:24:17.703Z,76.25
2019-02-05T12:26:42.321Z,76.20
2019-02-05T12:29:06.886Z,76.30
2019-02-05T12:31:31.420Z,76.25
2019-02-05T12:33:55.855Z,76.01
2019-02-05T12:36:20.386Z,75.14
2019-02-05T12:38:47.589Z,75.87
2019-02-05T12:41:14.266Z,76.36
2019-02-05T12:43:38.775Z,76.05
2019-02-05T12:46:03.624Z,76.21
2019-02-05T12:48:28.065Z,76.30
2019-02-05T12:50:52.573Z,76.37
2019-02-05T12:53:17.246Z,76.08
2019-02-05T12:55:41.756Z,76.06
2019-02-05T12:58:06.870Z,75.42
2019-02-05T13:00:39.962Z,75.53
2019-02-05T13:03:04.753Z,76.03
2019-02-05T13:05:29.736Z,75.96
2019-02-05T13:07:54.617Z,76.11
2019-02-05T13:10:24.916Z,75.94
2019-02-05T13:12:49.464Z,75.57
2019-02-05T13:15:14.121Z,76.20
2019-02-05T13:17:38.553Z,75.35
2019-02-05T13:20:04.598Z,75.54
2019-02-05T13:22:29.115Z,75.95
2019-02-05T13:24:53.640Z,76.38
2019-02-05T13:27:18.235Z,76.07
2019-02-05T13:29:43.091Z,75.60
2019-02-05T13:32:07.664Z,76.29
2019-02-05T13:34:32.117Z,76.37
2019-02-05T13:36:56.631Z,75.64
2019-02-05T13:39:21.094Z,76.23
2019-02-05T13:41:45.532Z,75.97
2019-02-05T13:44:10.053Z,76.14
2019-02-05T13:46:34.560Z,76.11
2019-02-05T13:48:59.035Z,75.68
2019-02-05T13:51:25.182Z,75.81
2019-02-05T13:53:49.976Z,75.82
2019-02-05T13:56:17.656Z,75.80
2019-02-05T13:58:42.241Z,75.46
2019-02-05T14:01:06.947Z,75.10
2019-02-05T14:03:31.460Z,75.60
2019-02-05T14:05:55.993Z,75.46
2019-02-05T14:08:20.520Z,75.96
2019-02-05T14:10:46.935Z,75.40
2019-02-05T14:13:11.511Z,76.02
2019-02-05T14:15:38.768Z,76.43
2019-02-05T14:18:03.633Z,76.45
2019-02-05T14:20:28.167Z,77.02
2019-02-05T14:22:52.602Z,77.49
2019-02-05T14:25:17.805Z,77.13
2019-02-05T14:27:42.324Z,76.65
2019-02-05T14:30:30.578Z,76.60
2019-02-05T14:32:55.153Z,76.77
2019-02-05T14:35:20.006Z,76.16
2019-02-05T14:37:44.466Z,75.39
2019-02-05T14:40:11.963Z,75.87
2019-02-05T14:42:36.429Z,74.99
2019-02-05T14:45:00.925Z,74.84
2019-02-05T14:47:28.926Z,74.71
2019-02-05T14:49:53.369Z,74.88
2019-02-05T14:52:17.869Z,74.29
2019-02-05T14:54:42.458Z,74.96
2019-02-05T14:57:07.377Z,75.04
2019-02-05T14:59:31.843Z,75.71
2019-02-05T15:01:56.357Z,75.71
2019-02-05T15:04:20.887Z,75.41
2019-02-05T15:06:45.380Z,74.87
2019-02-05T15:09:09.967Z,74.92
2019-02-05T15:11:34.512Z,74.61
2019-02-05T15:13:59.020Z,74.68
2019-02-05T15:16:23.526Z,75.49
2019-02-05T15:18:47.989Z,75.15
2019-02-05T15:21:12.877Z,75.18
2019-02-05T15:23:37.354Z,74.67
2019-02-05T15:26:01.811Z,74.58
2019-02-05T15:28:26.289Z,73.76
2019-02-05T15:30:50.778Z,73.99
2019-02-05T15:33:36.118Z,74.20
2019-02-05T15:36:02.265Z,73.87
2019-02-05T15:38:27.175Z,73.89
2019-02-05T15:40:51.682Z,73.19
2019-02-05T15:43:16.265Z,73.10
2019-02-05T15:45:40.766Z,72.82
2019-02-05T15:48:05.367Z,72.57
2019-02-05T15:50:29.792Z,72.44
2019-02-05T15:52:54.330Z,72.69
2019-02-05T15:55:20.980Z,72.50
2019-02-05T15:57:45.073Z,73.07
2019-02-05T16:00:20.329Z,72.94
2019-02-05T16:02:44.922Z,72.88
2019-02-05T16:05:11.536Z,73.56
2019-02-05T16:07:35.977Z,73.10
2019-02-05T16:10:00.481Z,73.65
2019-02-05T16:12:24.900Z,73.75
2019-02-05T16:14:49.385Z,73.20
2019-02-05T16:17:13.904Z,73.28
2019-02-05T16:19:38.377Z,74.07
2019-02-05T16:22:03.216Z,73.95
2019-02-05T16:24:27.695Z,73.59
2019-02-05T16:26:52.145Z,74.36
2019-02-05T16:29:16.653Z,74.03
2019-02-05T16:31:41.139Z,73.75
2019-02-05T16:34:05.704Z,73.70
2019-02-05T16:36:30.272Z,73.70
2019-02-05T16:38:54.714Z,73.96
2019-02-05T16:41:19.327Z,73.59
2019-02-05T16:43:43.769Z,73.17
2019-02-05T16:46:08.331Z,73.12
2019-02-05T16:48:33.039Z,72.52
2019-02-05T16:50:57.520Z,72.75
2019-02-05T16:53:22.092Z,72.70
2019-02-05T16:55:46.594Z,72.97
2019-02-05T16:58:11.160Z,72.83
2019-02-05T17:00:39.568Z,72.81
2019-02-05T17:03:04.590Z,72.29
2019-02-05T17:05:31.053Z,73.22
2019-02-05T17:07:55.684Z,72.96
2019-02-05T17:10:22.520Z,72.07
2019-02-05T17:12:47.204Z,72.21
2019-02-05T17:15:14.004Z,72.53
2019-02-05T17:17:38.475Z,72.01
2019-02-05T17:20:02.991Z,72.12
2019-02-05T17:22:27.503Z,71.47
2019-02-05T17:24:52.025Z,70.75
2019-02-05T17:27:16.532Z,71.65
2019-02-05T17:29:40.997Z,71.29
2019-02-05T17:32:07.751Z,71.68
2019-02-05T17:34:31.953Z,71.49
2019-02-05T17:36:56.492Z,72.72
2019-02-05T17:39:21.055Z,71.80
2019-02-05T17:41:45.589Z,72.18
2019-02-05T17:44:10.142Z,72.41
2019-02-05T17:46:34.658Z,72.78
2019-02-05T17:48:59.146Z,72.89
2019-02-05T17:51:23.657Z,72.98
2019-02-05T17:53:48.214Z,73.12
2019-02-05T17:56:12.783Z,73.07
2019-02-05T17:58:37.287Z,72.98
2019-02-05T18:01:03.600Z,73.09
2019-02-05T18:03:28.037Z,73.31
2019-02-05T18:05:52.508Z,73.46
2019-02-05T18:08:17.012Z,74.01
2019-02-05T18:10:42.116Z,74.29
2019-02-05T18:13:06.751Z,72.98
2019-02-05T18:15:36.093Z,73.43
2019-02-05T18:18:00.619Z,73.14
2019-02-05T18:20:25.229Z,73.23
2019-02-05T18:22:50.023Z,73.47
2019-02-05T18:25:19.288Z,73.80
2019-02-05T18:27:43.903Z,73.20
2019-02-05T18:30:11.426Z,72.78
2019-02-05T18:32:36.025Z,73.24
2019-02-05T18:35:00.532Z,73.50
2019-02-05T18:37:25.149Z,73.49
2019-02-05T18:39:49.688Z,73.53
2019-02-05T18:42:14.174Z,73.82
2019-02-05T18:44:39.025Z,74.14
2019-02-05T18:47:07.568Z,73.72
2019-02-05T18:49:32.000Z,74.19
2019-02-05T18:51:56.545Z,74.17
2019-02-05T18:54:21.000Z,74.08
2019-02-05T18:56:45.546Z,73.82
2019-02-05T18:59:10.061Z,74.74
2019-02-05T19:01:34.539Z,74.48
2019-02-05T19:03:59.065Z,73.95
2019-02-05T19:06:23.565Z,74.73
2019-02-05T19:08:48.450Z,74.94
2019-02-05T19:11:13.061Z,74.58
2019-02-05T19:13:37.689Z,74.78
2019-02-05T19:16:02.267Z,75.25
2019-02-05T19:18:26.859Z,74.79
2019-02-05T19:20:51.372Z,75.44
2019-02-05T19:23:15.929Z,75.19
2019-02-05T19:25:54.029Z,74.60
2019-02-05T19:28:23.245Z,75.02
2019-02-05T19:30:49.337Z,75.68
2019-02-05T19:33:13.891Z,75.90
2019-02-05T19:35:38.402Z,76.04
2019-02-05T19:38:02.954Z,75.82
2019-02-05T19:40:27.551Z,76.19
2019-02-05T19:42:52.194Z,76.67
2019-02-05T19:45:21.733Z,76.22
2019-02-05T19:47:46.336Z,76.53
2019-02-05T19:50:11.043Z,76.73
2019-02-05T19:52:35.862Z,76.79
2019-02-05T19:55:00.418Z,75.99
2019-02-05T19:57:24.935Z,76.25
2019-02-05T19:59:49.666Z,76.13
2019-02-05T20:02:14.197Z,75.73
2019-02-05T20:04:38.740Z,75.92
2019-02-05T20:07:03.266Z,75.56
2019-02-05T20:09:27.802Z,75.41
2019-02-05T20:11:52.250Z,75.60
2019-02-05T20:14:16.761Z,75.33
2019-02-05T20:16:41.324Z,75.45
2019-02-05T20:19:05.914Z,75.27
2019-02-05T20:21:31.989Z,75.71
2019-02-05T20:23:56.734Z,75.82
2019-02-05T20:26:21.278Z,75.14
2019-02-05T20:28:45.742Z,74.95
2019-02-05T20:31:10.365Z,75.19
2019-02-05T20:33:34.823Z,74.53
2019-02-05T20:35:59.312Z,75.54
2019-02-05T20:38:23.759Z,76.00
2019-02-05T20:40:48.242Z,74.93
2019-02-05T20:43:12.754Z,74.13
2019-02-05T20:45:37.484Z,75.39
2019-02-05T20:48:01.954Z,74.89
2019-02-05T20:50:26.459Z,74.51
2019-02-05T20:52:54.144Z,74.49
2019-02-05T20:55:21.638Z,74.95
2019-02-05T20:57:46.180Z,74.83
2019-02-05T21:00:16.357Z,74.60
2019-02-05T21:02:40.882Z,74.86
2019-02-05T21:05:08.856Z,76.09
2019-02-05T21:07:33.330Z,75.96
2019-02-05T21:09:57.773Z,75.92
2019-02-05T21:12:22.247Z,75.99
2019-02-05T21:14:46.696Z,76.30
2019-02-05T21:17:11.330Z,75.81
2019-02-05T21:19:35.774Z,75.61
2019-02-05T21:22:00.387Z,75.12
2019-02-05T21:24:24.813Z,75.23
2019-02-05T21:26:49.339Z,75.54
2019-02-05T21:29:13.847Z,75.62
2019-02-05T21:31:38.446Z,75.02
2019-02-05T21:34:14.859Z,74.96
2019-02-05T21:36:29.129Z,74.74
2019-02-05T21:38:53.650Z,75.05
2019-02-05T21:41:18.127Z,74.27
2019-02-05T21:43:42.740Z,74.28
2019-02-05T21:46:07.327Z,74.37
2019-02-05T21:48:31.793Z,74.19
2019-02-05T21:50:56.227Z,72.75
2019-02-05T21:53:20.695Z,73.21
2019-02-05T21:55:45.196Z,73.04
2019-02-05T21:58:12.445Z,73.58
2019-02-05T22:00:36.648Z,73.12
2019-02-05T22:03:01.109Z,72.86
2019-02-05T22:05:26.354Z,73.17
2019-02-05T22:07:50.800Z,72.53
2019-02-05T22:10:16.090Z,73.21
2019-02-05T22:12:40.680Z,72.92
2019-02-05T22:15:13.647Z,72.37
2019-02-05T22:17:38.121Z,71.69
2019-02-05T22:20:02.827Z,71.35
2019-02-05T22:22:27.371Z,71.56
2019-02-05T22:24:51.841Z,72.14
2019-02-05T22:27:16.321Z,72.42
2019-02-05T22:29:40.838Z,72.13
2019-02-05T22:32:05.448Z,72.02
2019-02-05T22:34:38.747Z,71.23
2019-02-05T22:36:56.147Z,71.75
2019-02-05T22:39:20.657Z,71.28
2019-02-05T22:41:45.137Z,71.17
2019-02-05T22:44:09.623Z,71.05
2019-02-05T22:46:34.420Z,70.59
2019-02-05T22:48:58.891Z,70.14
2019-02-05T22:51:23.300Z,70.59
2019-02-05T22:53:47.755Z,71.78
2019-02-05T22:56:12.274Z,71.61
2019-02-05T22:58:37.024Z,71.48
2019-02-05T23:01:16.333Z,70.47
2019-02-05T23:03:46.646Z,71.03
2019-02-05T23:06:32.389Z,71.31
2019-02-05T23:09:00.085Z,71.18
2019-02-05T23:11:42.229Z,71.02
2019-02-05T23:14:06.854Z,70.34
2019-02-05T23:16:31.365Z,70.52
2019-02-05T23:18:55.895Z,70.77
2019-02-05T23:21:20.317Z,70.26
2019-02-05T23:23:44.820Z,70.09
2019-02-05T23:26:11.084Z,69.65
2019-02-05T23:28:35.488Z,69.34
2019-02-05T23:31:00.056Z,69.70
2019-02-05T23:33:24.541Z,69.06
2019-02-05T23:35:50.273Z,69.59
2019-02-05T23:38:14.626Z,69.07
2019-02-05T23:40:39.147Z,69.74
2019-02-05T23:43:03.895Z,69.61
2019-02-05T23:45:28.421Z,69.22
2019-02-05T23:47:52.828Z,69.46
2019-02-05T23:50:17.674Z,68.87
2019-02-05T23:52:42.698Z,68.74
2019-02-05T23:55:10.276Z,68.68
2019-02-05T23:57:34.678Z,68.92
2019-02-05T23:59:59.081Z,68.86
